sensor_id;sensor_type;location;lat;lon;timestamp;P1;durP1;ratioP1;P2;durP2;ratioP2
27161;SDS011;54464;50.558;9.704;2022-12-01T00:00:18;30.80;;;18.50;;
27161;SDS011;54464;50.558;9.704;2022-12-01T00:02:44;29.13;;;18.33;;
27161;SDS011;54464;50.558;9.704;2022-12-01T00:05:09;29.73;;;18.10;;
27161;SDS011;54464;50.558;9.704;2022-12-01T00:07:35;27.20;;;17.53;;
27161;SDS011;54464;50.558;9.704;2022-12-01T00:10:00;27.63;;;17.83;;
27161;SDS011;54464;50.558;9.704;2022-12-01T00:12:45;27.40;;;18.33;;
27161;SDS011;54464;50.558;9.704;2022-12-01T00:15:10;25.50;;;17.17;;
27161;SDS011;54464;50.558;9.704;2022-12-01T00:17:37;25.43;;;17.27;;
27161;SDS011;54464;50.558;9.704;2022-12-01T00:20:03;27.17;;;17.40;;
27161;SDS011;54464;50.558;9.704;2022-12-01T00:22:30;26.07;;;17.03;;
27161;SDS011;54464;50.558;9.704;2022-12-01T00:24:56;26.63;;;17.73;;
27161;SDS011;54464;50.558;9.704;2022-12-01T00:27:21;26.60;;;17.93;;
27161;SDS011;54464;50.558;9.704;2022-12-01T00:29:47;26.57;;;17.53;;
27161;SDS011;54464;50.558;9.704;2022-12-01T00:32:12;27.30;;;17.93;;
27161;SDS011;54464;50.558;9.704;2022-12-01T00:34:38;29.50;;;17.97;;
27161;SDS011;54464;50.558;9.704;2022-12-01T00:37:04;27.53;;;18.27;;
27161;SDS011;54464;50.558;9.704;2022-12-01T00:39:30;29.77;;;19.13;;
27161;SDS011;54464;50.558;9.704;2022-12-01T00:41:56;27.60;;;17.40;;
27161;SDS011;54464;50.558;9.704;2022-12-01T00:44:21;30.70;;;18.43;;
27161;SDS011;54464;50.558;9.704;2022-12-01T00:46:47;27.17;;;17.30;;
27161;SDS011;54464;50.558;9.704;2022-12-01T00:49:13;31.00;;;19.67;;
27161;SDS011;54464;50.558;9.704;2022-12-01T00:51:39;29.40;;;18.57;;
27161;SDS011;54464;50.558;9.704;2022-12-01T00:54:05;30.07;;;20.50;;
27161;SDS011;54464;50.558;9.704;2022-12-01T00:56:31;28.93;;;19.73;;
27161;SDS011;54464;50.558;9.704;2022-12-01T00:58:56;32.13;;;20.10;;
27161;SDS011;54464;50.558;9.704;2022-12-01T01:01:22;28.53;;;19.13;;
27161;SDS011;54464;50.558;9.704;2022-12-01T01:03:48;29.37;;;18.83;;
27161;SDS011;54464;50.558;9.704;2022-12-01T01:06:13;28.60;;;18.80;;
27161;SDS011;54464;50.558;9.704;2022-12-01T01:08:39;31.43;;;20.07;;
27161;SDS011;54464;50.558;9.704;2022-12-01T01:11:05;28.03;;;18.17;;
27161;SDS011;54464;50.558;9.704;2022-12-01T01:13:32;30.37;;;19.17;;
27161;SDS011;54464;50.558;9.704;2022-12-01T01:16:03;31.67;;;19.27;;
27161;SDS011;54464;50.558;9.704;2022-12-01T01:18:31;30.80;;;18.87;;
27161;SDS011;54464;50.558;9.704;2022-12-01T01:20:57;30.57;;;19.60;;
27161;SDS011;54464;50.558;9.704;2022-12-01T01:23:25;30.90;;;19.57;;
27161;SDS011;54464;50.558;9.704;2022-12-01T01:25:51;30.87;;;19.63;;
27161;SDS011;54464;50.558;9.704;2022-12-01T01:28:17;30.47;;;19.33;;
27161;SDS011;54464;50.558;9.704;2022-12-01T01:30:43;28.47;;;18.87;;
27161;SDS011;54464;50.558;9.704;2022-12-01T01:33:09;31.07;;;19.20;;
27161;SDS011;54464;50.558;9.704;2022-12-01T01:35:35;30.83;;;19.23;;
27161;SDS011;54464;50.558;9.704;2022-12-01T01:38:01;30.63;;;19.40;;
27161;SDS011;54464;50.558;9.704;2022-12-01T01:40:26;30.47;;;19.43;;
27161;SDS011;54464;50.558;9.704;2022-12-01T01:42:52;32.50;;;20.07;;
27161;SDS011;54464;50.558;9.704;2022-12-01T01:45:22;32.23;;;20.30;;
27161;SDS011;54464;50.558;9.704;2022-12-01T01:47:50;28.93;;;19.53;;
27161;SDS011;54464;50.558;9.704;2022-12-01T01:50:19;28.47;;;19.40;;
27161;SDS011;54464;50.558;9.704;2022-12-01T01:52:50;29.83;;;20.00;;
27161;SDS011;54464;50.558;9.704;2022-12-01T01:55:19;34.33;;;20.13;;
27161;SDS011;54464;50.558;9.704;2022-12-01T01:57:45;29.10;;;19.83;;
27161;SDS011;54464;50.558;9.704;2022-12-01T02:00:12;29.30;;;19.83;;
27161;SDS011;54464;50.558;9.704;2022-12-01T02:02:40;29.43;;;18.20;;
27161;SDS011;54464;50.558;9.704;2022-12-01T02:05:11;26.37;;;17.50;;
27161;SDS011;54464;50.558;9.704;2022-12-01T02:07:58;25.30;;;17.20;;
27161;SDS011;54464;50.558;9.704;2022-12-01T02:10:50;27.70;;;17.53;;
27161;SDS011;54464;50.558;9.704;2022-12-01T02:13:37;26.10;;;16.60;;
27161;SDS011;54464;50.558;9.704;2022-12-01T02:16:34;27.37;;;17.93;;
27161;SDS011;54464;50.558;9.704;2022-12-01T02:24:56;26.70;;;18.27;;
27161;SDS011;54464;50.558;9.704;2022-12-01T02:27:59;28.17;;;18.10;;
27161;SDS011;54464;50.558;9.704;2022-12-01T02:30:40;26.63;;;18.40;;
27161;SDS011;54464;50.558;9.704;2022-12-01T02:33:17;28.43;;;17.70;;
27161;SDS011;54464;50.558;9.704;2022-12-01T02:41:30;30.33;;;18.33;;
27161;SDS011;54464;50.558;9.704;2022-12-01T02:46:36;27.83;;;19.10;;
27161;SDS011;54464;50.558;9.704;2022-12-01T02:49:15;22.70;;;17.07;;
27161;SDS011;54464;50.558;9.704;2022-12-01T02:51:45;25.60;;;17.43;;
27161;SDS011;54464;50.558;9.704;2022-12-01T02:54:13;26.37;;;17.70;;
27161;SDS011;54464;50.558;9.704;2022-12-01T02:56:39;22.73;;;17.00;;
27161;SDS011;54464;50.558;9.704;2022-12-01T02:59:09;24.47;;;16.53;;
27161;SDS011;54464;50.558;9.704;2022-12-01T03:07:17;25.17;;;16.90;;
27161;SDS011;54464;50.558;9.704;2022-12-01T03:12:42;24.10;;;16.23;;
27161;SDS011;54464;50.558;9.704;2022-12-01T03:20:29;22.37;;;15.97;;
27161;SDS011;54464;50.558;9.704;2022-12-01T03:23:04;23.30;;;15.93;;
27161;SDS011;54464;50.558;9.704;2022-12-01T03:25:34;24.33;;;16.80;;
27161;SDS011;54464;50.558;9.704;2022-12-01T03:28:01;23.90;;;16.50;;
27161;SDS011;54464;50.558;9.704;2022-12-01T03:30:29;27.30;;;16.77;;
27161;SDS011;54464;50.558;9.704;2022-12-01T03:33:00;25.93;;;17.40;;
27161;SDS011;54464;50.558;9.704;2022-12-01T03:36:17;23.47;;;16.03;;
27161;SDS011;54464;50.558;9.704;2022-12-01T03:38:26;24.67;;;15.93;;
27161;SDS011;54464;50.558;9.704;2022-12-01T03:40:55;23.70;;;16.03;;
27161;SDS011;54464;50.558;9.704;2022-12-01T03:43:30;20.50;;;14.63;;
27161;SDS011;54464;50.558;9.704;2022-12-01T03:49:04;20.70;;;14.43;;
27161;SDS011;54464;50.558;9.704;2022-12-01T03:56:50;21.33;;;14.57;;
27161;SDS011;54464;50.558;9.704;2022-12-01T03:59:19;22.33;;;16.03;;
27161;SDS011;54464;50.558;9.704;2022-12-01T04:01:46;23.50;;;16.63;;
27161;SDS011;54464;50.558;9.704;2022-12-01T04:04:13;23.93;;;16.13;;
27161;SDS011;54464;50.558;9.704;2022-12-01T04:06:39;22.37;;;15.87;;
27161;SDS011;54464;50.558;9.704;2022-12-01T04:09:10;23.43;;;16.33;;
27161;SDS011;54464;50.558;9.704;2022-12-01T04:11:36;22.50;;;15.80;;
27161;SDS011;54464;50.558;9.704;2022-12-01T04:14:20;22.40;;;15.37;;
27161;SDS011;54464;50.558;9.704;2022-12-01T04:16:46;27.00;;;16.43;;
27161;SDS011;54464;50.558;9.704;2022-12-01T04:19:12;22.87;;;16.63;;
27161;SDS011;54464;50.558;9.704;2022-12-01T04:21:38;24.33;;;16.50;;
27161;SDS011;54464;50.558;9.704;2022-12-01T04:24:03;24.40;;;17.23;;
27161;SDS011;54464;50.558;9.704;2022-12-01T04:26:31;24.87;;;17.03;;
27161;SDS011;54464;50.558;9.704;2022-12-01T04:28:59;26.43;;;17.33;;
27161;SDS011;54464;50.558;9.704;2022-12-01T04:31:26;22.80;;;15.93;;
27161;SDS011;54464;50.558;9.704;2022-12-01T04:33:53;23.40;;;15.67;;
27161;SDS011;54464;50.558;9.704;2022-12-01T04:36:19;24.90;;;16.37;;
27161;SDS011;54464;50.558;9.704;2022-12-01T04:38:45;23.47;;;16.67;;
27161;SDS011;54464;50.558;9.704;2022-12-01T04:41:11;24.07;;;16.23;;
27161;SDS011;54464;50.558;9.704;2022-12-01T04:43:38;25.30;;;17.47;;
27161;SDS011;54464;50.558;9.704;2022-12-01T04:46:04;26.60;;;18.53;;
27161;SDS011;54464;50.558;9.704;2022-12-01T04:48:31;27.27;;;17.93;;
27161;SDS011;54464;50.558;9.704;2022-12-01T04:50:58;25.57;;;17.97;;
27161;SDS011;54464;50.558;9.704;2022-12-01T04:53:24;28.20;;;18.57;;
27161;SDS011;54464;50.558;9.704;2022-12-01T04:55:49;28.93;;;18.30;;
27161;SDS011;54464;50.558;9.704;2022-12-01T04:58:15;24.50;;;16.70;;
27161;SDS011;54464;50.558;9.704;2022-12-01T05:00:41;26.53;;;17.63;;
27161;SDS011;54464;50.558;9.704;2022-12-01T05:03:06;25.90;;;17.60;;
27161;SDS011;54464;50.558;9.704;2022-12-01T05:05:32;29.47;;;19.47;;
27161;SDS011;54464;50.558;9.704;2022-12-01T05:07:57;30.03;;;19.57;;
27161;SDS011;54464;50.558;9.704;2022-12-01T05:10:23;26.03;;;17.87;;
27161;SDS011;54464;50.558;9.704;2022-12-01T05:12:49;28.13;;;18.33;;
27161;SDS011;54464;50.558;9.704;2022-12-01T05:15:15;27.77;;;18.70;;
27161;SDS011;54464;50.558;9.704;2022-12-01T05:17:41;25.43;;;18.20;;
27161;SDS011;54464;50.558;9.704;2022-12-01T05:20:07;25.03;;;17.73;;
27161;SDS011;54464;50.558;9.704;2022-12-01T05:22:57;25.20;;;17.13;;
27161;SDS011;54464;50.558;9.704;2022-12-01T05:25:23;24.37;;;16.00;;
27161;SDS011;54464;50.558;9.704;2022-12-01T05:27:48;24.30;;;17.33;;
27161;SDS011;54464;50.558;9.704;2022-12-01T05:30:14;24.03;;;17.97;;
27161;SDS011;54464;50.558;9.704;2022-12-01T05:32:40;23.73;;;16.47;;
27161;SDS011;54464;50.558;9.704;2022-12-01T05:35:06;21.87;;;16.47;;
27161;SDS011;54464;50.558;9.704;2022-12-01T05:37:32;21.60;;;15.80;;
27161;SDS011;54464;50.558;9.704;2022-12-01T05:39:58;21.37;;;14.83;;
27161;SDS011;54464;50.558;9.704;2022-12-01T05:42:25;23.07;;;16.30;;
27161;SDS011;54464;50.558;9.704;2022-12-01T05:44:53;22.87;;;16.73;;
27161;SDS011;54464;50.558;9.704;2022-12-01T05:47:19;22.73;;;16.37;;
27161;SDS011;54464;50.558;9.704;2022-12-01T05:49:44;24.00;;;16.47;;
27161;SDS011;54464;50.558;9.704;2022-12-01T05:52:10;24.20;;;17.00;;
27161;SDS011;54464;50.558;9.704;2022-12-01T05:54:36;25.10;;;17.03;;
27161;SDS011;54464;50.558;9.704;2022-12-01T05:57:01;24.37;;;17.33;;
27161;SDS011;54464;50.558;9.704;2022-12-01T05:59:27;25.20;;;18.33;;
27161;SDS011;54464;50.558;9.704;2022-12-01T06:01:53;24.53;;;17.20;;
27161;SDS011;54464;50.558;9.704;2022-12-01T06:04:18;25.20;;;17.30;;
27161;SDS011;54464;50.558;9.704;2022-12-01T06:06:44;23.30;;;16.90;;
27161;SDS011;54464;50.558;9.704;2022-12-01T06:09:10;26.23;;;17.80;;
27161;SDS011;54464;50.558;9.704;2022-12-01T06:11:35;25.03;;;17.57;;
27161;SDS011;54464;50.558;9.704;2022-12-01T06:14:01;22.83;;;16.67;;
27161;SDS011;54464;50.558;9.704;2022-12-01T06:16:27;22.57;;;16.30;;
27161;SDS011;54464;50.558;9.704;2022-12-01T06:18:52;21.97;;;16.93;;
27161;SDS011;54464;50.558;9.704;2022-12-01T06:21:18;25.97;;;17.73;;
27161;SDS011;54464;50.558;9.704;2022-12-01T06:23:44;22.90;;;16.83;;
27161;SDS011;54464;50.558;9.704;2022-12-01T06:26:09;25.60;;;17.37;;
27161;SDS011;54464;50.558;9.704;2022-12-01T06:28:35;24.37;;;16.93;;
27161;SDS011;54464;50.558;9.704;2022-12-01T06:31:01;23.73;;;17.13;;
27161;SDS011;54464;50.558;9.704;2022-12-01T06:33:26;24.37;;;17.33;;
27161;SDS011;54464;50.558;9.704;2022-12-01T06:35:58;22.77;;;17.10;;
27161;SDS011;54464;50.558;9.704;2022-12-01T06:38:28;23.27;;;17.30;;
27161;SDS011;54464;50.558;9.704;2022-12-01T06:40:55;23.80;;;16.83;;
27161;SDS011;54464;50.558;9.704;2022-12-01T06:43:21;24.37;;;17.67;;
27161;SDS011;54464;50.558;9.704;2022-12-01T06:45:46;22.53;;;16.97;;
27161;SDS011;54464;50.558;9.704;2022-12-01T06:48:15;25.10;;;18.07;;
27161;SDS011;54464;50.558;9.704;2022-12-01T06:50:41;24.97;;;17.27;;
27161;SDS011;54464;50.558;9.704;2022-12-01T06:53:06;25.97;;;18.37;;
27161;SDS011;54464;50.558;9.704;2022-12-01T06:55:32;22.90;;;17.33;;
27161;SDS011;54464;50.558;9.704;2022-12-01T06:57:58;25.57;;;18.43;;
27161;SDS011;54464;50.558;9.704;2022-12-01T07:00:24;25.50;;;18.07;;
27161;SDS011;54464;50.558;9.704;2022-12-01T07:02:50;26.10;;;18.20;;
27161;SDS011;54464;50.558;9.704;2022-12-01T07:05:15;26.30;;;18.10;;
27161;SDS011;54464;50.558;9.704;2022-12-01T07:07:41;24.20;;;16.80;;
27161;SDS011;54464;50.558;9.704;2022-12-01T07:10:07;26.37;;;17.53;;
27161;SDS011;54464;50.558;9.704;2022-12-01T07:12:34;24.97;;;17.63;;
27161;SDS011;54464;50.558;9.704;2022-12-01T07:15:00;23.37;;;17.30;;
27161;SDS011;54464;50.558;9.704;2022-12-01T07:17:26;24.23;;;17.37;;
27161;SDS011;54464;50.558;9.704;2022-12-01T07:19:52;24.90;;;17.70;;
27161;SDS011;54464;50.558;9.704;2022-12-01T07:22:18;24.07;;;16.87;;
27161;SDS011;54464;50.558;9.704;2022-12-01T07:24:43;23.40;;;17.33;;
27161;SDS011;54464;50.558;9.704;2022-12-01T07:27:09;23.33;;;17.60;;
27161;SDS011;54464;50.558;9.704;2022-12-01T07:29:35;23.60;;;16.97;;
27161;SDS011;54464;50.558;9.704;2022-12-01T07:32:00;24.70;;;17.47;;
27161;SDS011;54464;50.558;9.704;2022-12-01T07:34:26;23.93;;;17.40;;
27161;SDS011;54464;50.558;9.704;2022-12-01T07:36:51;23.57;;;17.93;;
27161;SDS011;54464;50.558;9.704;2022-12-01T07:39:17;26.03;;;18.00;;
27161;SDS011;54464;50.558;9.704;2022-12-01T07:41:43;24.17;;;17.27;;
27161;SDS011;54464;50.558;9.704;2022-12-01T07:44:09;23.10;;;17.53;;
27161;SDS011;54464;50.558;9.704;2022-12-01T07:46:35;24.70;;;17.50;;
27161;SDS011;54464;50.558;9.704;2022-12-01T07:49:03;24.30;;;16.97;;
27161;SDS011;54464;50.558;9.704;2022-12-01T07:51:30;24.07;;;16.97;;
27161;SDS011;54464;50.558;9.704;2022-12-01T07:53:59;21.67;;;16.63;;
27161;SDS011;54464;50.558;9.704;2022-12-01T07:56:26;22.23;;;16.17;;
27161;SDS011;54464;50.558;9.704;2022-12-01T07:58:52;21.90;;;16.37;;
27161;SDS011;54464;50.558;9.704;2022-12-01T08:01:21;22.57;;;16.10;;
27161;SDS011;54464;50.558;9.704;2022-12-01T08:03:49;22.27;;;16.63;;
27161;SDS011;54464;50.558;9.704;2022-12-01T08:06:20;31.03;;;20.20;;
27161;SDS011;54464;50.558;9.704;2022-12-01T08:08:46;25.13;;;17.97;;
27161;SDS011;54464;50.558;9.704;2022-12-01T08:11:14;22.07;;;16.50;;
27161;SDS011;54464;50.558;9.704;2022-12-01T08:13:45;24.50;;;16.43;;
27161;SDS011;54464;50.558;9.704;2022-12-01T08:16:13;22.20;;;16.50;;
27161;SDS011;54464;50.558;9.704;2022-12-01T08:18:40;22.93;;;16.63;;
27161;SDS011;54464;50.558;9.704;2022-12-01T08:21:08;22.20;;;16.67;;
27161;SDS011;54464;50.558;9.704;2022-12-01T08:23:35;21.00;;;15.93;;
27161;SDS011;54464;50.558;9.704;2022-12-01T08:26:01;23.10;;;16.83;;
27161;SDS011;54464;50.558;9.704;2022-12-01T08:28:31;23.60;;;17.23;;
27161;SDS011;54464;50.558;9.704;2022-12-01T08:31:05;22.53;;;16.37;;
27161;SDS011;54464;50.558;9.704;2022-12-01T08:33:31;23.80;;;16.57;;
27161;SDS011;54464;50.558;9.704;2022-12-01T08:36:00;23.47;;;16.57;;
27161;SDS011;54464;50.558;9.704;2022-12-01T08:38:26;23.37;;;17.10;;
27161;SDS011;54464;50.558;9.704;2022-12-01T08:40:51;23.17;;;17.53;;
27161;SDS011;54464;50.558;9.704;2022-12-01T08:43:20;23.53;;;17.20;;
27161;SDS011;54464;50.558;9.704;2022-12-01T08:45:46;23.60;;;17.03;;
27161;SDS011;54464;50.558;9.704;2022-12-01T08:48:11;24.13;;;17.17;;
27161;SDS011;54464;50.558;9.704;2022-12-01T08:50:37;26.23;;;19.27;;
27161;SDS011;54464;50.558;9.704;2022-12-01T08:53:03;27.00;;;19.43;;
27161;SDS011;54464;50.558;9.704;2022-12-01T08:55:28;24.03;;;17.17;;
27161;SDS011;54464;50.558;9.704;2022-12-01T08:57:54;23.70;;;16.80;;
27161;SDS011;54464;50.558;9.704;2022-12-01T09:00:20;23.13;;;17.23;;
27161;SDS011;54464;50.558;9.704;2022-12-01T09:02:45;21.93;;;15.87;;
27161;SDS011;54464;50.558;9.704;2022-12-01T09:05:11;21.83;;;16.83;;
27161;SDS011;54464;50.558;9.704;2022-12-01T09:07:36;21.57;;;16.43;;
27161;SDS011;54464;50.558;9.704;2022-12-01T09:10:03;24.47;;;17.17;;
27161;SDS011;54464;50.558;9.704;2022-12-01T09:12:29;23.63;;;16.87;;
27161;SDS011;54464;50.558;9.704;2022-12-01T09:14:54;20.57;;;15.33;;
27161;SDS011;54464;50.558;9.704;2022-12-01T09:17:20;24.33;;;16.40;;
27161;SDS011;54464;50.558;9.704;2022-12-01T09:19:47;22.83;;;16.70;;
27161;SDS011;54464;50.558;9.704;2022-12-01T09:22:13;26.03;;;16.97;;
27161;SDS011;54464;50.558;9.704;2022-12-01T09:24:38;22.43;;;16.27;;
27161;SDS011;54464;50.558;9.704;2022-12-01T09:27:04;24.50;;;17.03;;
27161;SDS011;54464;50.558;9.704;2022-12-01T09:29:31;23.80;;;16.97;;
27161;SDS011;54464;50.558;9.704;2022-12-01T09:31:57;24.80;;;17.00;;
27161;SDS011;54464;50.558;9.704;2022-12-01T09:34:24;22.63;;;16.87;;
27161;SDS011;54464;50.558;9.704;2022-12-01T09:36:50;23.97;;;17.07;;
27161;SDS011;54464;50.558;9.704;2022-12-01T09:39:22;27.30;;;17.73;;
27161;SDS011;54464;50.558;9.704;2022-12-01T09:44:52;30.13;;;19.57;;
27161;SDS011;54464;50.558;9.704;2022-12-01T09:47:32;29.67;;;19.97;;
27161;SDS011;54464;50.558;9.704;2022-12-01T09:50:09;32.20;;;21.47;;
27161;SDS011;54464;50.558;9.704;2022-12-01T09:52:41;29.33;;;20.00;;
27161;SDS011;54464;50.558;9.704;2022-12-01T09:55:13;32.50;;;21.80;;
27161;SDS011;54464;50.558;9.704;2022-12-01T09:57:42;36.47;;;22.93;;
27161;SDS011;54464;50.558;9.704;2022-12-01T10:02:41;32.93;;;23.23;;
27161;SDS011;54464;50.558;9.704;2022-12-01T10:05:37;36.10;;;23.47;;
27161;SDS011;54464;50.558;9.704;2022-12-01T10:08:06;33.60;;;23.03;;
27161;SDS011;54464;50.558;9.704;2022-12-01T10:10:47;32.83;;;22.57;;
27161;SDS011;54464;50.558;9.704;2022-12-01T10:13:18;38.80;;;24.33;;
27161;SDS011;54464;50.558;9.704;2022-12-01T10:16:06;35.23;;;23.47;;
27161;SDS011;54464;50.558;9.704;2022-12-01T10:26:25;39.47;;;23.60;;
27161;SDS011;54464;50.558;9.704;2022-12-01T10:29:10;39.30;;;24.90;;
27161;SDS011;54464;50.558;9.704;2022-12-01T10:32:10;43.97;;;25.47;;
27161;SDS011;54464;50.558;9.704;2022-12-01T10:34:40;39.30;;;24.73;;
27161;SDS011;54464;50.558;9.704;2022-12-01T10:37:25;43.83;;;25.87;;
27161;SDS011;54464;50.558;9.704;2022-12-01T10:39:54;40.63;;;25.00;;
27161;SDS011;54464;50.558;9.704;2022-12-01T10:45:27;41.47;;;24.93;;
27161;SDS011;54464;50.558;9.704;2022-12-01T10:50:53;40.43;;;23.97;;
27161;SDS011;54464;50.558;9.704;2022-12-01T10:55:48;44.70;;;26.57;;
27161;SDS011;54464;50.558;9.704;2022-12-01T10:58:20;43.67;;;25.93;;
27161;SDS011;54464;50.558;9.704;2022-12-01T11:00:53;46.97;;;26.97;;
27161;SDS011;54464;50.558;9.704;2022-12-01T11:03:22;46.27;;;28.27;;
27161;SDS011;54464;50.558;9.704;2022-12-01T11:05:51;44.90;;;27.47;;
27161;SDS011;54464;50.558;9.704;2022-12-01T11:08:20;48.13;;;27.10;;
27161;SDS011;54464;50.558;9.704;2022-12-01T11:10:47;49.10;;;27.57;;
27161;SDS011;54464;50.558;9.704;2022-12-01T11:13:24;47.27;;;25.77;;
27161;SDS011;54464;50.558;9.704;2022-12-01T11:15:59;46.97;;;26.83;;
27161;SDS011;54464;50.558;9.704;2022-12-01T11:23:52;46.67;;;27.17;;
27161;SDS011;54464;50.558;9.704;2022-12-01T11:26:29;53.60;;;28.53;;
27161;SDS011;54464;50.558;9.704;2022-12-01T11:28:59;51.30;;;27.47;;
27161;SDS011;54464;50.558;9.704;2022-12-01T11:31:35;54.10;;;29.33;;
27161;SDS011;54464;50.558;9.704;2022-12-01T11:34:23;52.90;;;26.97;;
27161;SDS011;54464;50.558;9.704;2022-12-01T11:36:55;53.00;;;28.33;;
27161;SDS011;54464;50.558;9.704;2022-12-01T11:42:03;55.07;;;29.27;;
27161;SDS011;54464;50.558;9.704;2022-12-01T11:44:31;52.83;;;27.27;;
27161;SDS011;54464;50.558;9.704;2022-12-01T11:47:14;57.77;;;30.57;;
27161;SDS011;54464;50.558;9.704;2022-12-01T11:49:52;53.90;;;28.27;;
27161;SDS011;54464;50.558;9.704;2022-12-01T11:52:30;55.97;;;28.23;;
27161;SDS011;54464;50.558;9.704;2022-12-01T11:57:35;57.67;;;28.77;;
27161;SDS011;54464;50.558;9.704;2022-12-01T12:00:13;56.83;;;29.50;;
27161;SDS011;54464;50.558;9.704;2022-12-01T12:08:08;61.40;;;31.13;;
27161;SDS011;54464;50.558;9.704;2022-12-01T12:15:55;63.53;;;31.87;;
27161;SDS011;54464;50.558;9.704;2022-12-01T12:18:38;66.03;;;32.30;;
27161;SDS011;54464;50.558;9.704;2022-12-01T12:21:29;68.03;;;32.07;;
27161;SDS011;54464;50.558;9.704;2022-12-01T12:26:56;68.97;;;32.40;;
27161;SDS011;54464;50.558;9.704;2022-12-01T12:35:01;69.37;;;31.80;;
27161;SDS011;54464;50.558;9.704;2022-12-01T12:38:24;64.93;;;30.67;;
27161;SDS011;54464;50.558;9.704;2022-12-01T12:40:59;69.03;;;32.07;;
27161;SDS011;54464;50.558;9.704;2022-12-01T12:43:41;78.63;;;33.13;;
27161;SDS011;54464;50.558;9.704;2022-12-01T12:47:29;73.00;;;31.53;;
27161;SDS011;54464;50.558;9.704;2022-12-01T12:52:09;68.10;;;32.23;;
27161;SDS011;54464;50.558;9.704;2022-12-01T12:57:25;71.50;;;32.27;;
27161;SDS011;54464;50.558;9.704;2022-12-01T13:00:13;73.43;;;32.67;;
27161;SDS011;54464;50.558;9.704;2022-12-01T13:06:00;67.00;;;31.03;;
27161;SDS011;54464;50.558;9.704;2022-12-01T13:08:33;63.77;;;30.60;;
27161;SDS011;54464;50.558;9.704;2022-12-01T13:11:05;59.93;;;29.50;;
27161;SDS011;54464;50.558;9.704;2022-12-01T13:16:32;65.73;;;31.87;;
27161;SDS011;54464;50.558;9.704;2022-12-01T13:19:13;60.43;;;30.93;;
27161;SDS011;54464;50.558;9.704;2022-12-01T13:21:43;60.77;;;31.13;;
27161;SDS011;54464;50.558;9.704;2022-12-01T13:24:14;55.17;;;29.43;;
27161;SDS011;54464;50.558;9.704;2022-12-01T13:26:44;56.97;;;29.13;;
27161;SDS011;54464;50.558;9.704;2022-12-01T13:29:15;58.90;;;29.80;;
27161;SDS011;54464;50.558;9.704;2022-12-01T13:31:46;63.10;;;31.17;;
27161;SDS011;54464;50.558;9.704;2022-12-01T13:37:02;67.27;;;32.13;;
27161;SDS011;54464;50.558;9.704;2022-12-01T13:39:29;62.53;;;31.60;;
27161;SDS011;54464;50.558;9.704;2022-12-01T13:44:43;62.30;;;30.67;;
27161;SDS011;54464;50.558;9.704;2022-12-01T13:58:19;66.83;;;31.47;;
27161;SDS011;54464;50.558;9.704;2022-12-01T14:10:52;68.87;;;32.67;;
27161;SDS011;54464;50.558;9.704;2022-12-01T14:13:21;69.67;;;33.23;;
27161;SDS011;54464;50.558;9.704;2022-12-01T14:15:51;67.47;;;30.97;;
27161;SDS011;54464;50.558;9.704;2022-12-01T14:21:00;68.53;;;33.77;;
27161;SDS011;54464;50.558;9.704;2022-12-01T14:26:28;60.30;;;31.03;;
27161;SDS011;54464;50.558;9.704;2022-12-01T14:34:21;64.57;;;30.37;;
27161;SDS011;54464;50.558;9.704;2022-12-01T14:36:53;57.40;;;29.20;;
27161;SDS011;54464;50.558;9.704;2022-12-01T14:39:39;58.40;;;30.13;;
27161;SDS011;54464;50.558;9.704;2022-12-01T14:42:19;58.27;;;29.50;;
27161;SDS011;54464;50.558;9.704;2022-12-01T14:45:29;57.53;;;29.63;;
27161;SDS011;54464;50.558;9.704;2022-12-01T14:48:04;55.00;;;28.30;;
27161;SDS011;54464;50.558;9.704;2022-12-01T14:50:39;58.30;;;29.87;;
27161;SDS011;54464;50.558;9.704;2022-12-01T14:56:11;54.37;;;28.00;;
27161;SDS011;54464;50.558;9.704;2022-12-01T14:58:49;54.03;;;28.67;;
27161;SDS011;54464;50.558;9.704;2022-12-01T15:01:16;50.20;;;27.83;;
27161;SDS011;54464;50.558;9.704;2022-12-01T15:03:49;53.90;;;27.57;;
27161;SDS011;54464;50.558;9.704;2022-12-01T15:06:21;51.97;;;26.90;;
27161;SDS011;54464;50.558;9.704;2022-12-01T15:11:30;54.47;;;26.17;;
27161;SDS011;54464;50.558;9.704;2022-12-01T15:13:57;53.23;;;27.30;;
27161;SDS011;54464;50.558;9.704;2022-12-01T15:16:29;53.93;;;27.20;;
27161;SDS011;54464;50.558;9.704;2022-12-01T15:18:56;52.20;;;25.93;;
27161;SDS011;54464;50.558;9.704;2022-12-01T15:23:56;55.27;;;27.97;;
27161;SDS011;54464;50.558;9.704;2022-12-01T15:26:24;50.77;;;26.20;;
27161;SDS011;54464;50.558;9.704;2022-12-01T15:31:39;54.20;;;28.50;;
27161;SDS011;54464;50.558;9.704;2022-12-01T15:34:08;53.73;;;28.30;;
27161;SDS011;54464;50.558;9.704;2022-12-01T15:36:48;52.53;;;28.23;;
27161;SDS011;54464;50.558;9.704;2022-12-01T15:39:17;53.93;;;28.40;;
27161;SDS011;54464;50.558;9.704;2022-12-01T15:42:03;55.00;;;28.20;;
27161;SDS011;54464;50.558;9.704;2022-12-01T15:44:36;56.53;;;29.17;;
27161;SDS011;54464;50.558;9.704;2022-12-01T15:50:03;55.20;;;29.17;;
27161;SDS011;54464;50.558;9.704;2022-12-01T15:52:29;52.00;;;27.67;;
27161;SDS011;54464;50.558;9.704;2022-12-01T15:55:00;54.60;;;27.90;;
27161;SDS011;54464;50.558;9.704;2022-12-01T15:57:31;56.57;;;27.73;;
27161;SDS011;54464;50.558;9.704;2022-12-01T15:59:58;53.67;;;27.83;;
27161;SDS011;54464;50.558;9.704;2022-12-01T16:02:27;48.03;;;26.17;;
27161;SDS011;54464;50.558;9.704;2022-12-01T16:05:29;52.67;;;27.70;;
27161;SDS011;54464;50.558;9.704;2022-12-01T16:07:51;55.80;;;29.90;;
27161;SDS011;54464;50.558;9.704;2022-12-01T16:10:28;51.97;;;28.30;;
27161;SDS011;54464;50.558;9.704;2022-12-01T16:15:59;54.27;;;28.70;;
27161;SDS011;54464;50.558;9.704;2022-12-01T16:18:43;54.93;;;27.93;;
27161;SDS011;54464;50.558;9.704;2022-12-01T16:21:20;61.17;;;29.70;;
27161;SDS011;54464;50.558;9.704;2022-12-01T16:23:47;58.77;;;31.63;;
27161;SDS011;54464;50.558;9.704;2022-12-01T16:26:13;58.60;;;29.43;;
27161;SDS011;54464;50.558;9.704;2022-12-01T16:28:39;61.53;;;30.80;;
27161;SDS011;54464;50.558;9.704;2022-12-01T16:31:17;62.37;;;31.53;;
27161;SDS011;54464;50.558;9.704;2022-12-01T16:33:43;66.33;;;31.60;;
27161;SDS011;54464;50.558;9.704;2022-12-01T16:36:13;64.97;;;30.60;;
27161;SDS011;54464;50.558;9.704;2022-12-01T16:38:39;60.77;;;31.80;;
27161;SDS011;54464;50.558;9.704;2022-12-01T16:41:15;60.77;;;29.73;;
27161;SDS011;54464;50.558;9.704;2022-12-01T16:43:45;59.30;;;29.23;;
27161;SDS011;54464;50.558;9.704;2022-12-01T16:46:11;64.20;;;29.40;;
27161;SDS011;54464;50.558;9.704;2022-12-01T16:48:38;59.67;;;29.57;;
27161;SDS011;54464;50.558;9.704;2022-12-01T16:51:04;61.90;;;30.53;;
27161;SDS011;54464;50.558;9.704;2022-12-01T16:53:31;59.10;;;27.93;;
27161;SDS011;54464;50.558;9.704;2022-12-01T16:55:58;63.77;;;29.97;;
27161;SDS011;54464;50.558;9.704;2022-12-01T16:58:25;59.13;;;29.23;;
27161;SDS011;54464;50.558;9.704;2022-12-01T17:00:52;61.07;;;29.50;;
27161;SDS011;54464;50.558;9.704;2022-12-01T17:03:18;59.23;;;27.63;;
27161;SDS011;54464;50.558;9.704;2022-12-01T17:05:53;56.67;;;27.73;;
27161;SDS011;54464;50.558;9.704;2022-12-01T17:08:19;60.40;;;29.43;;
27161;SDS011;54464;50.558;9.704;2022-12-01T17:10:46;58.70;;;28.10;;